Time;durP1;ratioP1;P1;durP2;ratioP2;P2;SDS_P1;SDS_P2;PMS_P1;PMS_P2;Temp;Humidity;BMP_temperature;BMP_pressure;BME280_temperature;BME280_humidity;BME280_pressure;Samples;Min_cycle;Max_cycle;Signal;HPM_P1;HPM_P2
2023/01/21 00:02:55;;;;;;;0.00;0.00;;;;;;;-145.06;100.00;53896.44;10454776;28;20434;-78
2023/01/21 00:07:55;;;;;;;0.00;0.00;;;;;;;-145.06;100.00;53884.28;10455007;28;20028;-77
2023/01/21 00:12:55;;;;;;;0.10;0.10;;;;;;;-145.06;100.00;53880.22;10455641;28;20028;-78
2023/01/21 00:17:56;;;;;;;0.00;0.00;;;;;;;-145.06;100.00;53892.38;10455220;28;20100;-78
2023/01/21 00:22:56;;;;;;;0.00;0.00;;;;;;;-145.06;100.00;53904.53;10453855;28;20025;-78
2023/01/21 00:27:58;;;;;;;0.00;0.00;;;;;;;-145.06;100.00;53922.75;10455491;28;20048;-77
2023/01/21 00:32:59;;;;;;;0.03;0.03;;;;;;;-145.06;100.00;53884.28;10454622;28;20027;-78
2023/01/21 00:37:59;;;;;;;0.00;0.00;;;;;;;-145.06;100.00;53880.22;10455980;28;20452;-78
2023/01/21 00:42:59;;;;;;;0.00;0.00;;;;;;;-145.06;100.00;53886.31;10458093;28;20086;-78
2023/01/21 00:47:59;;;;;;;0.00;0.00;;;;;;;-145.06;100.00;53920.75;10463452;28;20028;-78
2023/01/21 00:53:00;;;;;;;0.00;0.00;;;;;;;-145.06;100.00;53892.38;10462965;28;20121;-78
2023/01/21 00:58:00;;;;;;;0.00;0.00;;;;;;;-145.06;100.00;53868.09;10463549;28;20025;-78
2023/01/21 01:03:00;;;;;;;0.00;0.00;;;;;;;-145.06;100.00;53880.22;10461456;28;20020;-77
2023/01/21 01:08:00;;;;;;;0.00;0.00;;;;;;;-145.06;100.00;53876.19;10462296;28;20059;-78
2023/01/21 01:13:01;;;;;;;0.00;0.00;;;;;;;-145.06;100.00;53906.56;10462259;28;20432;-77
2023/01/21 01:18:01;;;;;;;0.00;0.00;;;;;;;-145.06;100.00;53884.28;10462118;28;20025;-76
2023/01/21 01:23:01;;;;;;;0.00;0.00;;;;;;;-145.06;100.00;53900.50;10462437;28;20032;-77
2023/01/21 01:28:02;;;;;;;0.00;0.00;;;;;;;-145.06;100.00;53886.31;10461843;28;20092;-77
2023/01/21 01:33:02;;;;;;;0.00;0.00;;;;;;;-145.06;100.00;53888.34;10461986;28;20259;-78
2023/01/21 01:38:06;;;;;;;0.00;0.00;;;;;;;-145.06;100.00;53916.69;10460145;28;20152;-78
2023/01/21 01:43:25;;;;;;;0.00;0.00;;;;;;;-145.06;100.00;53900.50;10459436;28;20025;-77
2023/01/21 01:48:30;;;;;;;0.00;0.00;;;;;;;-145.06;100.00;53888.34;10460469;28;20379;-78
2023/01/21 01:53:31;;;;;;;0.00;0.00;;;;;;;-145.06;100.00;53876.19;10457783;28;20025;-78
2023/01/21 01:58:32;;;;;;;0.00;0.00;;;;;;;-145.06;100.00;53916.69;10459492;28;20415;-75
2023/01/21 02:03:49;;;;;;;0.00;0.00;;;;;;;-145.06;100.00;53916.69;10462131;28;20074;-77
2023/01/21 02:08:50;;;;;;;0.00;0.00;;;;;;;-145.06;100.00;53892.38;10461273;28;20473;-78
2023/01/21 02:13:55;;;;;;;0.08;0.08;;;;;;;-145.06;100.00;53876.19;10461737;28;20032;-78
2023/01/21 02:19:23;;;;;;;0.00;0.00;;;;;;;-145.06;100.00;53845.81;10461196;28;20029;-78
2023/01/21 02:24:46;;;;;;;0.00;0.00;;;;;;;-145.06;100.00;53892.38;10460838;28;20126;-77
2023/01/21 02:30:15;;;;;;;0.00;0.00;;;;;;;-145.06;100.00;53888.34;10461367;28;20032;-78
2023/01/21 02:35:20;;;;;;;0.03;0.03;;;;;;;-145.06;100.00;53853.91;10459506;28;20112;-78
2023/01/21 02:40:54;;;;;;;0.00;0.00;;;;;;;-145.06;100.00;53924.78;10457368;28;20031;-77
2023/01/21 02:46:04;;;;;;;0.00;0.00;;;;;;;-145.06;100.00;53886.31;10459971;28;20027;-77
2023/01/21 02:51:05;;;;;;;0.00;0.00;;;;;;;-145.06;100.00;53892.38;10459161;28;20021;-77
2023/01/21 02:56:11;;;;;;;0.00;0.00;;;;;;;-145.06;100.00;53849.84;10459089;28;20056;-78
2023/01/21 03:01:45;;;;;;;0.00;0.00;;;;;;;-145.06;100.00;53908.59;10459773;28;20028;-78
2023/01/21 03:07:14;;;;;;;0.00;0.00;;;;;;;-145.06;100.00;53904.53;10458213;28;20056;-78
2023/01/21 03:12:28;;;;;;;0.08;0.08;;;;;;;-145.06;100.00;53904.53;10459034;28;20412;-78
2023/01/21 03:17:37;;;;;;;0.10;0.10;;;;;;;-145.06;100.00;53892.38;10453720;28;20091;-77
2023/01/21 03:22:39;;;;;;;0.00;0.00;;;;;;;-145.06;100.00;53864.03;10453334;28;20492;-76
2023/01/21 03:27:43;;;;;;;0.00;0.00;;;;;;;-145.06;100.00;53904.53;10454083;28;20473;-77
2023/01/21 03:32:48;;;;;;;0.00;0.00;;;;;;;-145.06;100.00;53886.31;10454120;28;20519;-77
2023/01/21 03:37:55;;;;;;;0.10;0.10;;;;;;;-145.06;100.00;53855.94;10454138;28;20029;-77
2023/01/21 03:42:56;;;;;;;0.00;0.00;;;;;;;-145.06;100.00;53930.88;10454140;28;20473;-76
2023/01/21 03:48:02;;;;;;;0.00;0.00;;;;;;;-145.06;100.00;53880.22;10454003;28;20021;-76
2023/01/21 03:53:04;;;;;;;0.00;0.00;;;;;;;-145.06;100.00;53851.88;10454430;28;20507;-78
2023/01/21 03:58:04;;;;;;;0.00;0.00;;;;;;;-145.06;100.00;53900.50;10457597;28;20059;-77
2023/01/21 04:03:05;;;;;;;0.00;0.00;;;;;;;-145.06;100.00;53853.91;10456377;28;20062;-76
2023/01/21 04:08:05;;;;;;;0.00;0.00;;;;;;;-145.06;100.00;53859.97;10457369;28;20337;-78
2023/01/21 04:13:05;;;;;;;0.10;0.10;;;;;;;-145.06;100.00;53888.34;10457192;28;20495;-78
2023/01/21 04:18:06;;;;;;;0.00;0.00;;;;;;;-145.06;100.00;53904.53;10456650;28;20267;-77
2023/01/21 04:23:06;;;;;;;0.00;0.00;;;;;;;-145.06;100.00;53876.19;10460788;28;20778;-77
2023/01/21 04:28:06;;;;;;;0.10;0.10;;;;;;;-145.06;100.00;53888.34;10460894;28;20362;-77
2023/01/21 04:33:07;;;;;;;0.00;0.00;;;;;;;-145.06;100.00;53914.66;10460078;28;20020;-77
2023/01/21 04:38:07;;;;;;;0.00;0.00;;;;;;;-145.06;100.00;53878.22;10459781;28;20104;-77
2023/01/21 04:43:07;;;;;;;0.00;0.00;;;;;;;-145.06;100.00;53896.44;10460283;28;20415;-77
2023/01/21 04:48:07;;;;;;;0.00;0.00;;;;;;;-145.06;100.00;53884.28;10459402;28;20260;-77
2023/01/21 04:53:08;;;;;;;0.03;0.03;;;;;;;-145.06;100.00;53888.34;10459385;28;20430;-77
2023/01/21 04:58:08;;;;;;;0.10;0.10;;;;;;;-145.06;100.00;53934.91;10460050;28;20036;-77
2023/01/21 05:03:08;;;;;;;0.00;0.00;;;;;;;-145.06;100.00;53892.38;10463920;28;20048;-78
2023/01/21 05:08:09;;;;;;;0.00;0.00;;;;;;;-145.06;100.00;53886.31;10463042;28;20696;-78
2023/01/21 05:13:09;;;;;;;0.00;0.00;;;;;;;-145.06;100.00;53936.94;10462682;28;20111;-78
2023/01/21 05:18:09;;;;;;;0.00;0.00;;;;;;;-145.06;100.00;53874.16;10463329;28;20264;-78
2023/01/21 05:23:10;;;;;;;0.00;0.00;;;;;;;-145.06;100.00;53890.38;10463027;28;20865;-78
2023/01/21 05:28:10;;;;;;;0.00;0.00;;;;;;;-145.06;100.00;53904.53;10462341;28;20029;-77
2023/01/21 05:33:10;;;;;;;0.00;0.00;;;;;;;-145.06;100.00;53894.41;10461595;28;20299;-78
2023/01/21 05:38:11;;;;;;;0.05;0.05;;;;;;;-145.06;100.00;53904.53;10462789;28;20025;-78
2023/01/21 05:43:11;;;;;;;0.00;0.00;;;;;;;-145.06;100.00;53896.44;10462070;28;20391;-78
2023/01/21 05:48:11;;;;;;;0.00;0.00;;;;;;;-145.06;100.00;53892.38;10462164;28;20051;-77
2023/01/21 05:53:12;;;;;;;0.00;0.00;;;;;;;-145.06;100.00;53908.59;10461322;28;20312;-78
2023/01/21 05:58:12;;;;;;;0.00;0.00;;;;;;;-145.06;100.00;53912.63;10462604;28;20020;-78
2023/01/21 06:03:14;;;;;;;0.00;0.00;;;;;;;-145.06;100.00;53892.38;10476583;22;20442;-80
2023/01/21 06:08:15;;;;;;;0.00;0.00;;;;;;;-145.06;100.00;53900.50;10480385;28;20041;-80
2023/01/21 06:13:15;;;;;;;0.00;0.00;;;;;;;-145.06;100.00;53894.41;10477579;28;20379;-79
2023/01/21 06:18:15;;;;;;;0.00;0.00;;;;;;;-145.06;100.00;53892.38;10455536;28;20384;-79
2023/01/21 06:23:16;;;;;;;0.00;0.00;;;;;;;-145.06;100.00;53886.31;10476150;28;20045;-79
2023/01/21 06:28:16;;;;;;;0.00;0.00;;;;;;;-145.06;100.00;53894.41;10477404;28;20073;-79
2023/01/21 06:33:17;;;;;;;0.00;0.00;;;;;;;-145.06;100.00;53924.78;10476449;28;20035;-79
2023/01/21 06:38:17;;;;;;;0.10;0.10;;;;;;;-145.06;100.00;53930.88;10473635;28;20017;-79
2023/01/21 06:43:17;;;;;;;0.10;0.10;;;;;;;-145.06;100.00;53912.63;10477103;28;20039;-83
2023/01/21 06:48:18;;;;;;;0.00;0.00;;;;;;;-145.06;100.00;53896.44;10477190;28;20335;-83
2023/01/21 06:53:18;;;;;;;0.10;0.10;;;;;;;-145.06;100.00;53934.91;10484884;28;20075;-83
2023/01/21 06:58:18;;;;;;;0.10;0.10;;;;;;;-145.06;100.00;53876.19;10482108;28;20020;-83
2023/01/21 07:03:18;;;;;;;0.10;0.10;;;;;;;-145.06;100.00;53888.34;10481612;28;20283;-82
2023/01/21 07:08:19;;;;;;;0.00;0.00;;;;;;;-145.06;100.00;53868.09;10473685;28;20056;-83
2023/01/21 07:13:19;;;;;;;0.03;0.03;;;;;;;-145.06;100.00;53880.22;10485401;28;20084;-83
2023/01/21 07:18:19;;;;;;;0.00;0.00;;;;;;;-145.06;100.00;53888.34;10483995;28;20266;-83
2023/01/21 07:23:20;;;;;;;0.00;0.00;;;;;;;-145.06;100.00;53908.59;10483577;28;20032;-83
2023/01/21 07:28:20;;;;;;;0.08;0.08;;;;;;;-145.06;100.00;53932.88;10482962;28;20017;-83
2023/01/21 07:33:21;;;;;;;0.00;0.00;;;;;;;-145.06;100.00;53902.50;10483119;28;20297;-83
2023/01/21 07:38:21;;;;;;;0.00;0.00;;;;;;;-145.06;100.00;53886.31;10479478;28;20013;-82
2023/01/21 07:43:21;;;;;;;0.00;0.00;;;;;;;-145.06;100.00;53920.75;10480757;28;20032;-82
2023/01/21 07:48:22;;;;;;;0.00;0.00;;;;;;;-145.06;100.00;53896.44;10482568;28;20770;-82
2023/01/21 07:53:22;;;;;;;0.10;0.10;;;;;;;-145.06;100.00;53843.78;10487001;28;20020;-83
2023/01/21 07:58:22;;;;;;;0.00;0.00;;;;;;;-145.06;100.00;53916.69;10492067;28;20025;-82
2023/01/21 08:03:24;;;;;;;0.05;0.05;;;;;;;-145.06;100.00;53847.84;10491350;28;20028;-82
2023/01/21 08:08:25;;;;;;;0.10;0.10;;;;;;;-145.06;100.00;53878.22;10493762;28;20067;-83
2023/01/21 08:13:25;;;;;;;0.10;0.10;;;;;;;-145.06;100.00;53878.22;10492314;28;20051;-83
2023/01/21 08:18:26;;;;;;;0.00;0.00;;;;;;;-145.06;100.00;53880.22;10492916;28;20052;-82
2023/01/21 08:23:26;;;;;;;0.05;0.05;;;;;;;-145.06;100.00;53912.63;10495143;28;20479;-82
2023/01/21 08:28:26;;;;;;;0.10;0.10;;;;;;;-145.06;100.00;53864.03;10491033;28;20025;-83
2023/01/21 08:33:27;;;;;;;0.10;0.10;;;;;;;-145.06;100.00;53924.78;10489782;28;20027;-82
2023/01/21 08:38:27;;;;;;;0.10;0.10;;;;;;;-145.06;100.00;53922.75;10490373;28;20031;-82
2023/01/21 08:43:28;;;;;;;0.00;0.00;;;;;;;-145.06;100.00;53880.22;10488920;28;20275;-82
2023/01/21 08:48:28;;;;;;;0.00;0.00;;;;;;;-145.06;100.00;53884.28;10486266;28;20017;-83
2023/01/21 08:53:29;;;;;;;0.00;0.00;;;;;;;-145.06;100.00;53880.22;10483687;28;20020;-83
2023/01/21 08:58:30;;;;;;;0.05;0.05;;;;;;;-145.06;100.00;53898.47;10484209;28;20017;-83
2023/01/21 09:03:30;;;;;;;0.00;0.00;;;;;;;-145.06;100.00;53904.53;10483623;28;20376;-83
2023/01/21 09:08:31;;;;;;;0.00;0.00;;;;;;;-145.06;100.00;53888.34;10482681;28;20021;-83
2023/01/21 09:13:38;;;;;;;0.00;0.00;;;;;;;-145.06;100.00;53941.00;10481819;28;20279;-83
2023/01/21 09:18:39;;;;;;;0.00;0.00;;;;;;;-145.06;100.00;53892.38;10480120;28;20028;-83
2023/01/21 09:23:40;;;;;;;0.10;0.10;;;;;;;-145.06;100.00;53868.09;10480104;28;20028;-83
2023/01/21 09:28:42;;;;;;;0.10;0.10;;;;;;;-145.06;100.00;53884.28;10474554;28;20027;-83
2023/01/21 09:33:45;;;;;;;0.10;0.10;;;;;;;-145.06;100.00;53902.50;10475015;28;20025;-83
2023/01/21 09:38:47;;;;;;;0.00;0.00;;;;;;;-145.06;100.00;53890.38;10473683;28;20084;-83
2023/01/21 09:43:55;;;;;;;0.00;0.00;;;;;;;-145.06;100.00;53896.44;10475127;28;20035;-83
2023/01/21 09:48:57;;;;;;;0.00;0.00;;;;;;;-145.06;100.00;53880.22;10469956;28;20025;-83
2023/01/21 09:53:58;;;;;;;0.00;0.00;;;;;;;-145.06;100.00;53880.22;10472795;28;20021;-82
2023/01/21 09:59:48;;;;;;;0.00;0.00;;;;;;;-145.06;100.00;53886.31;10471978;28;20009;-82
2023/01/21 10:05:05;;;;;;;0.10;0.10;;;;;;;-145.06;100.00;53916.69;10414897;28;20041;-81
2023/01/21 10:10:05;;;;;;;0.00;0.00;;;;;;;-145.06;100.00;53920.75;10470583;28;20017;-82
2023/01/21 10:15:07;;;;;;;0.00;0.00;;;;;;;-145.06;100.00;53945.03;10472673;28;20096;-82
2023/01/21 10:20:16;;;;;;;0.00;0.00;;;;;;;-145.06;100.00;53902.50;10471015;28;20290;-82
2023/01/21 10:25:30;;;;;;;0.00;0.00;;;;;;;-145.06;100.00;53872.13;10470374;28;20025;-81
2023/01/21 10:30:36;;;;;;;0.00;0.00;;;;;;;-145.06;100.00;53855.94;10469787;28;20021;-82
2023/01/21 10:36:02;;;;;;;0.00;0.00;;;;;;;-145.06;100.00;53896.44;10468054;28;20468;-81
2023/01/21 10:41:20;;;;;;;0.00;0.00;;;;;;;-145.06;100.00;53894.41;10449960;28;20036;-84
2023/01/21 10:46:36;;;;;;;0.00;0.00;;;;;;;-145.06;100.00;53908.59;10471538;28;20499;-83
2023/01/21 10:51:44;;;;;;;0.00;0.00;;;;;;;-145.06;100.00;53924.78;10471267;28;20475;-82
2023/01/21 10:57:02;;;;;;;0.00;0.00;;;;;;;-145.06;100.00;53928.84;10472077;28;20411;-81
2023/01/21 11:02:03;;;;;;;0.03;0.03;;;;;;;-145.06;100.00;53900.50;10467475;28;20024;-83
2023/01/21 11:07:08;;;;;;;0.00;0.00;;;;;;;-145.06;100.00;53918.72;10466901;28;20033;-84
2023/01/21 11:12:11;;;;;;;0.00;0.00;;;;;;;-145.06;100.00;53884.28;10470877;28;20029;-84
2023/01/21 11:17:11;;;;;;;0.08;0.08;;;;;;;-145.06;100.00;53884.28;10469262;28;20087;-82
2023/01/21 11:22:14;;;;;;;0.00;0.00;;;;;;;-145.06;100.00;53878.22;10472301;28;20047;-83
2023/01/21 11:27:20;;;;;;;0.00;0.00;;;;;;;-145.06;100.00;53930.88;10470739;28;20065;-84
2023/01/21 11:32:23;;;;;;;0.00;0.00;;;;;;;-145.06;100.00;53870.09;10472251;28;20041;-83
2023/01/21 11:37:26;;;;;;;0.00;0.00;;;;;;;-145.06;100.00;53906.56;10469860;28;20021;-83
2023/01/21 11:42:26;;;;;;;0.00;0.00;;;;;;;-145.06;100.00;53912.63;10472176;28;20056;-83
2023/01/21 11:47:36;;;;;;;0.00;0.00;;;;;;;-145.06;100.00;53880.22;10471344;28;20060;-84
2023/01/21 11:52:37;;;;;;;0.00;0.00;;;;;;;-145.06;100.00;53924.78;10467685;28;20021;-84
2023/01/21 11:57:38;;;;;;;0.00;0.00;;;;;;;-145.06;100.00;53878.22;10468065;28;20076;-84
2023/01/21 12:02:44;;;;;;;0.00;0.00;;;;;;;-145.06;100.00;53847.84;10467969;28;20017;-84
2023/01/21 12:07:50;;;;;;;0.00;0.00;;;;;;;-145.06;100.00;53922.75;10427719;22;20171;-79
2023/01/21 12:13:28;;;;;;;0.00;0.00;;;;;;;-145.06;100.00;53878.22;10415075;28;20480;-78
2023/01/21 12:18:56;;;;;;;0.00;0.00;;;;;;;-145.06;100.00;53890.38;10347480;28;20504;-79
2023/01/21 12:24:29;;;;;;;0.00;0.00;;;;;;;-145.06;100.00;53888.34;10414913;28;20483;-77
2023/01/21 12:30:09;;;;;;;0.00;0.00;;;;;;;-145.06;100.00;53880.22;10414651;28;20021;-78
2023/01/21 12:35:22;;;;;;;0.00;0.00;;;;;;;-145.06;100.00;53932.88;10413101;28;20037;-80
2023/01/21 12:40:30;;;;;;;0.00;0.00;;;;;;;-145.06;100.00;53912.63;10422051;28;20065;-79
2023/01/21 12:45:40;;;;;;;0.00;0.00;;;;;;;-145.06;100.00;53906.56;10414539;28;20030;-80
2023/01/21 12:50:51;;;;;;;0.05;0.05;;;;;;;-145.06;100.00;53900.50;10421481;28;20507;-79
2023/01/21 12:56:06;;;;;;;0.00;0.00;;;;;;;-145.06;100.00;53890.38;10423944;28;20380;-78
2023/01/21 13:01:29;;;;;;;0.00;0.00;;;;;;;-145.06;100.00;53841.75;10409281;28;20021;-78
2023/01/21 13:06:37;;;;;;;0.00;0.00;;;;;;;-145.06;100.00;53880.22;10420010;28;20112;-81
2023/01/21 13:11:46;;;;;;;0.00;0.00;;;;;;;-145.06;100.00;53890.38;10411041;28;20013;-80
2023/01/21 13:16:52;;;;;;;0.00;0.00;;;;;;;-145.06;100.00;53902.50;10421569;28;20028;-79
2023/01/21 13:22:07;;;;;;;0.00;0.00;;;;;;;-145.06;100.00;53896.44;10420924;28;20465;-78
2023/01/21 13:27:15;;;;;;;0.00;0.00;;;;;;;-145.06;100.00;53906.56;10413513;28;20024;-79
2023/01/21 13:32:27;;;;;;;0.00;0.00;;;;;;;-145.06;100.00;53892.38;10420454;28;20024;-77
2023/01/21 13:37:35;;;;;;;0.00;0.00;;;;;;;-145.06;100.00;53947.06;10419672;28;20013;-80
2023/01/21 13:42:49;;;;;;;0.00;0.00;;;;;;;-145.06;100.00;53886.31;10416429;28;20511;-79
2023/01/21 13:48:04;;;;;;;0.00;0.00;;;;;;;-145.06;100.00;53835.69;10423452;28;20472;-80
2023/01/21 13:53:17;;;;;;;0.00;0.00;;;;;;;-145.06;100.00;53855.94;10420938;28;20615;-80
2023/01/21 13:58:48;;;;;;;0.00;0.00;;;;;;;-145.06;100.00;53890.38;10405417;28;20025;-79
2023/01/21 14:03:56;;;;;;;0.00;0.00;;;;;;;-145.06;100.00;53898.47;10397086;28;20045;-77
2023/01/21 14:09:03;;;;;;;0.00;0.00;;;;;;;-145.06;100.00;53847.84;10417135;28;20032;-81
2023/01/21 14:14:06;;;;;;;0.00;0.00;;;;;;;-145.06;100.00;53888.34;10418641;28;20104;-80
2023/01/21 14:19:24;;;;;;;0.00;0.00;;;;;;;-145.06;100.00;53922.75;10418050;28;20013;-80
2023/01/21 14:24:46;;;;;;;0.08;0.08;;;;;;;-145.06;100.00;53876.19;10410712;28;20029;-80
2023/01/21 14:29:57;;;;;;;0.00;0.00;;;;;;;-145.06;100.00;53892.38;10419126;28;20017;-80
2023/01/21 14:35:23;;;;;;;0.00;0.00;;;;;;;-145.06;100.00;53849.84;10408892;28;20036;-80
2023/01/21 14:40:31;;;;;;;0.00;0.00;;;;;;;-145.06;100.00;53870.09;10419758;28;20400;-78
2023/01/21 14:45:51;;;;;;;0.00;0.00;;;;;;;-145.06;100.00;53896.44;10421229;28;20057;-79
2023/01/21 14:50:53;;;;;;;0.10;0.10;;;;;;;-145.06;100.00;53904.53;10416770;28;20116;-78
2023/01/21 14:56:15;;;;;;;0.00;0.00;;;;;;;-145.06;100.00;53904.53;10417321;28;20112;-77
2023/01/21 15:01:39;;;;;;;0.00;0.00;;;;;;;-145.06;100.00;53892.38;10417904;28;20040;-79
2023/01/21 15:06:41;;;;;;;0.00;0.00;;;;;;;-145.06;100.00;53896.44;10407621;28;20029;-79
2023/01/21 15:11:43;;;;;;;0.00;0.00;;;;;;;-145.06;100.00;53916.69;10417751;28;20017;-79
2023/01/21 15:16:45;;;;;;;0.00;0.00;;;;;;;-145.06;100.00;53908.59;10417564;28;20064;-77
2023/01/21 15:22:00;;;;;;;0.00;0.00;;;;;;;-145.06;100.00;53886.31;10416526;28;20030;-78
2023/01/21 15:27:20;;;;;;;0.00;0.00;;;;;;;-145.06;100.00;53892.38;10411760;28;20496;-80
2023/01/21 15:32:37;;;;;;;0.00;0.00;;;;;;;-145.06;100.00;53898.47;10417096;28;20025;-78
2023/01/21 15:37:39;;;;;;;0.00;0.00;;;;;;;-145.06;100.00;53902.50;10415539;28;20025;-80
2023/01/21 15:43:04;;;;;;;0.00;0.00;;;;;;;-145.06;100.00;53910.63;10415138;28;20052;-79
2023/01/21 15:48:23;;;;;;;0.00;0.00;;;;;;;-145.06;100.00;53892.38;10416598;28;20036;-79
2023/01/21 15:53:32;;;;;;;0.00;0.00;;;;;;;-145.06;100.00;53894.41;10415776;28;20032;-79
2023/01/21 15:58:40;;;;;;;0.00;0.00;;;;;;;-145.06;100.00;53908.59;10414567;28;20025;-78
2023/01/21 16:03:46;;;;;;;0.00;0.00;;;;;;;-145.06;100.00;53872.13;10415209;28;20083;-77
2023/01/21 16:08:58;;;;;;;0.00;0.00;;;;;;;-145.06;100.00;53855.94;10416730;28;20392;-79
2023/01/21 16:13:59;;;;;;;0.00;0.00;;;;;;;-145.06;100.00;53932.88;10416278;28;20028;-80
2023/01/21 16:19:11;;;;;;;0.00;0.00;;;;;;;-145.06;100.00;53892.38;10426013;28;20125;-78
2023/01/21 16:24:16;;;;;;;0.00;0.00;;;;;;;-145.06;100.00;53874.16;10424256;28;20056;-78
2023/01/21 16:29:16;;;;;;;0.00;0.00;;;;;;;-145.06;100.00;53908.59;10423910;28;20068;-78
2023/01/21 16:34:41;;;;;;;0.00;0.00;;;;;;;-145.06;100.00;53916.69;10419555;28;20423;-78
2023/01/21 16:39:42;;;;;;;0.00;0.00;;;;;;;-145.06;100.00;53932.88;10420372;28;20291;-78
2023/01/21 16:44:42;;;;;;;0.00;0.00;;;;;;;-145.06;100.00;53876.19;10421331;28;20383;-77
2023/01/21 16:49:43;;;;;;;0.05;0.05;;;;;;;-145.06;100.00;53900.50;10423114;28;20024;-80
2023/01/21 16:54:48;;;;;;;0.00;0.00;;;;;;;-145.06;100.00;53855.94;10422257;28;20503;-79
2023/01/21 16:59:48;;;;;;;0.03;0.03;;;;;;;-145.06;100.00;53912.63;10424036;28;20288;-79
2023/01/21 17:04:49;;;;;;;0.00;0.00;;;;;;;-145.06;100.00;53892.38;10425369;28;20017;-80
2023/01/21 17:09:58;;;;;;;0.00;0.00;;;;;;;-145.06;100.00;53912.63;10426419;28;20260;-80
2023/01/21 17:15:07;;;;;;;0.00;0.00;;;;;;;-145.06;100.00;53910.63;10414515;28;20392;-79
2023/01/21 17:20:30;;;;;;;0.00;0.00;;;;;;;-145.06;100.00;53916.69;10422118;28;20048;-79
2023/01/21 17:25:31;;;;;;;0.00;0.00;;;;;;;-145.06;100.00;53859.97;10420838;28;20337;-80
2023/01/21 17:30:32;;;;;;;0.00;0.00;;;;;;;-145.06;100.00;53880.22;10421528;28;20044;-78
2023/01/21 17:35:32;;;;;;;0.05;0.05;;;;;;;-145.06;100.00;53910.63;10422408;28;20030;-79
2023/01/21 17:40:44;;;;;;;0.00;0.00;;;;;;;-145.06;100.00;53855.94;10421577;28;20021;-80
2023/01/21 17:45:45;;;;;;;0.00;0.00;;;;;;;-145.06;100.00;53918.72;10398006;28;20029;-79
2023/01/21 17:50:46;;;;;;;0.00;0.00;;;;;;;-145.06;100.00;53872.13;10421142;28;20040;-80
2023/01/21 17:55:57;;;;;;;0.00;0.00;;;;;;;-145.06;100.00;53918.72;10421863;28;20029;-79
2023/01/21 18:01:02;;;;;;;0.00;0.00;;;;;;;-145.06;100.00;53898.47;10422759;28;20380;-80
2023/01/21 18:06:05;;;;;;;0.03;0.03;;;;;;;-145.06;100.00;53894.41;10468942;22;20037;-82
2023/01/21 18:11:05;;;;;;;0.00;0.00;;;;;;;-145.06;100.00;53918.72;10498542;28;20012;-83
2023/01/21 18:16:06;;;;;;;0.00;0.00;;;;;;;-145.06;100.00;53914.66;10510649;28;20024;-82
2023/01/21 18:21:15;;;;;;;0.00;0.00;;;;;;;-145.06;100.00;53906.56;10505727;28;20031;-81
2023/01/21 18:26:23;;;;;;;0.00;0.00;;;;;;;-145.06;100.00;53898.47;10503945;28;20051;-83
2023/01/21 18:31:24;;;;;;;0.00;0.00;;;;;;;-145.06;100.00;53900.50;10505800;28;20028;-83
2023/01/21 18:36:24;;;;;;;0.00;0.00;;;;;;;-145.06;100.00;53910.63;10501417;28;20024;-81
2023/01/21 18:41:25;;;;;;;0.00;0.00;;;;;;;-145.06;100.00;53924.78;10499811;28;20070;-82
2023/01/21 18:46:25;;;;;;;0.00;0.00;;;;;;;-145.06;100.00;53896.44;10493084;28;20047;-81
2023/01/21 18:51:25;;;;;;;0.00;0.00;;;;;;;-145.06;100.00;53890.38;10501054;28;20031;-82
2023/01/21 18:56:26;;;;;;;0.00;0.00;;;;;;;-145.06;100.00;53886.31;10503771;28;20025;-82
2023/01/21 19:01:26;;;;;;;0.00;0.00;;;;;;;-145.06;100.00;53870.09;10505919;28;20275;-83
2023/01/21 19:06:26;;;;;;;0.00;0.00;;;;;;;-145.06;100.00;53908.59;10506147;28;20035;-83
2023/01/21 19:11:27;;;;;;;0.00;0.00;;;;;;;-145.06;100.00;53916.69;10500164;28;20017;-83
2023/01/21 19:16:27;;;;;;;0.00;0.00;;;;;;;-145.06;100.00;53902.50;10495435;28;20334;-83
2023/01/21 19:21:27;;;;;;;0.00;0.00;;;;;;;-145.06;100.00;53888.34;10493964;28;20067;-84
2023/01/21 19:26:27;;;;;;;0.00;0.00;;;;;;;-145.06;100.00;53912.63;10512375;28;20025;-83
2023/01/21 19:31:29;;;;;;;0.00;0.00;;;;;;;-145.06;100.00;53924.78;10487795;28;20040;-83
2023/01/21 19:36:29;;;;;;;0.00;0.00;;;;;;;-145.06;100.00;53920.75;10500981;28;20510;-83
2023/01/21 19:41:29;;;;;;;0.00;0.00;;;;;;;-145.06;100.00;53890.38;10496113;28;20024;-83
2023/01/21 19:46:30;;;;;;;0.00;0.00;;;;;;;-145.06;100.00;53900.50;10497942;28;20025;-83
2023/01/21 19:51:30;;;;;;;0.00;0.00;;;;;;;-145.06;100.00;53926.81;10504371;28;20021;-83
2023/01/21 19:56:30;;;;;;;0.00;0.00;;;;;;;-145.06;100.00;53896.44;10514603;28;20359;-83
2023/01/21 20:01:31;;;;;;;0.05;0.05;;;;;;;-145.06;100.00;53888.34;10512315;28;20475;-83
2023/01/21 20:06:40;;;;;;;0.00;0.00;;;;;;;-145.06;100.00;53890.38;10504859;28;20036;-82
2023/01/21 20:11:41;;;;;;;0.00;0.00;;;;;;;-145.06;100.00;53876.19;10491037;28;20051;-83
2023/01/21 20:16:46;;;;;;;0.10;0.10;;;;;;;-145.06;100.00;53902.50;10495247;28;20029;-82
2023/01/21 20:21:46;;;;;;;0.10;0.10;;;;;;;-145.06;100.00;53902.50;10495978;28;20028;-82
2023/01/21 20:26:47;;;;;;;0.00;0.00;;;;;;;-145.06;100.00;53892.38;10497569;28;20088;-82
2023/01/21 20:31:47;;;;;;;0.08;0.08;;;;;;;-145.06;100.00;53908.59;10490942;28;20342;-84
2023/01/21 20:36:49;;;;;;;0.10;0.10;;;;;;;-145.06;100.00;53890.38;10499280;28;20084;-83
2023/01/21 20:41:50;;;;;;;0.00;0.00;;;;;;;-145.06;100.00;53880.22;10488741;28;20334;-84
2023/01/21 20:46:50;;;;;;;0.00;0.00;;;;;;;-145.06;100.00;53878.22;10500187;28;20013;-83
2023/01/21 20:51:50;;;;;;;0.00;0.00;;;;;;;-145.06;100.00;53918.72;10495079;28;20346;-83
2023/01/21 20:56:51;;;;;;;0.00;0.00;;;;;;;-145.06;100.00;53922.75;10493467;28;20024;-83
2023/01/21 21:01:54;;;;;;;0.10;0.10;;;;;;;-145.06;100.00;53924.78;10492990;28;20059;-82
2023/01/21 21:06:54;;;;;;;0.00;0.00;;;;;;;-145.06;100.00;53878.22;10511298;28;20032;-83
2023/01/21 21:11:54;;;;;;;0.00;0.00;;;;;;;-145.06;100.00;53928.84;10490938;28;20088;-83
2023/01/21 21:16:56;;;;;;;0.10;0.10;;;;;;;-145.06;100.00;53888.34;10491757;28;20024;-83
2023/01/21 21:21:56;;;;;;;0.05;0.05;;;;;;;-145.06;100.00;53908.59;10488000;28;20025;-82
2023/01/21 21:26:56;;;;;;;0.08;0.08;;;;;;;-145.06;100.00;53874.16;10490709;28;20040;-83
2023/01/21 21:32:00;;;;;;;0.00;0.00;;;;;;;-145.06;100.00;53872.13;10485240;28;20031;-83
2023/01/21 21:37:01;;;;;;;0.00;0.00;;;;;;;-145.06;100.00;53851.88;10491047;28;20380;-83
2023/01/21 21:52:39;;;;;;;0.00;0.00;;;;;;;-145.06;100.00;53880.22;10487733;28;20020;-83
2023/01/21 21:57:40;;;;;;;0.05;0.05;;;;;;;-145.06;100.00;53908.59;10487543;28;20024;-83
2023/01/21 22:02:41;;;;;;;0.10;0.10;;;;;;;-145.06;100.00;53874.16;10493610;28;20033;-84
2023/01/21 22:07:41;;;;;;;0.10;0.10;;;;;;;-145.06;100.00;53872.13;10494301;28;20080;-83
2023/01/21 22:12:41;;;;;;;0.03;0.03;;;;;;;-145.06;100.00;53924.78;10487337;28;20264;-83
2023/01/21 22:17:41;;;;;;;0.05;0.05;;;;;;;-145.06;100.00;53892.38;10465244;28;20278;-83
2023/01/21 22:22:42;;;;;;;0.10;0.10;;;;;;;-145.06;100.00;53886.31;10477296;28;20350;-83
2023/01/21 22:27:43;;;;;;;0.00;0.00;;;;;;;-145.06;100.00;53894.41;10488214;28;20020;-83
2023/01/21 22:32:44;;;;;;;0.00;0.00;;;;;;;-145.06;100.00;53876.19;10487618;28;20324;-84
2023/01/21 22:37:44;;;;;;;0.00;0.00;;;;;;;-145.06;100.00;53934.91;10499612;28;20502;-85
2023/01/21 22:42:45;;;;;;;0.07;0.07;;;;;;;-145.06;100.00;53894.41;10498694;28;20078;-84
2023/01/21 22:47:45;;;;;;;0.00;0.00;;;;;;;-145.06;100.00;53882.25;10488547;28;20263;-83
2023/01/21 22:52:45;;;;;;;0.00;0.00;;;;;;;-145.06;100.00;53880.22;10483075;28;20012;-83
2023/01/21 22:57:45;;;;;;;0.00;0.00;;;;;;;-145.06;100.00;53896.44;10482872;28;20056;-83
2023/01/21 23:02:46;;;;;;;0.00;0.00;;;;;;;-145.06;100.00;53898.47;10491669;28;20025;-83